sensor_id;sensor_type;location;lat;lon;timestamp;pressure;altitude;pressure_sealevel;temperature;humidity
11345;BME280;5727;42.600;23.028;2023-03-16T00:00:40;92784.44;;;4.37;100.00
11345;BME280;5727;42.600;23.028;2023-03-16T00:03:07;92791.00;;;4.35;100.00
11345;BME280;5727;42.600;23.028;2023-03-16T00:05:34;92794.50;;;4.30;100.00
11345;BME280;5727;42.600;23.028;2023-03-16T00:08:01;92800.50;;;4.14;100.00
11345;BME280;5727;42.600;23.028;2023-03-16T00:10:27;92807.03;;;4.11;100.00
11345;BME280;5727;42.600;23.028;2023-03-16T00:12:55;92805.69;;;4.14;100.00
11345;BME280;5727;42.600;23.028;2023-03-16T00:15:22;92802.63;;;4.12;100.00
11345;BME280;5727;42.600;23.028;2023-03-16T00:17:50;92800.03;;;4.12;100.00
11345;BME280;5727;42.600;23.028;2023-03-16T00:20:17;92803.69;;;4.19;100.00
11345;BME280;5727;42.600;23.028;2023-03-16T00:22:44;92799.56;;;4.27;100.00
11345;BME280;5727;42.600;23.028;2023-03-16T00:25:12;92796.50;;;4.25;100.00
11345;BME280;5727;42.600;23.028;2023-03-16T00:27:40;92805.81;;;4.26;100.00
11345;BME280;5727;42.600;23.028;2023-03-16T00:30:08;92802.47;;;4.25;100.00
11345;BME280;5727;42.600;23.028;2023-03-16T00:32:36;92805.50;;;4.27;100.00
11345;BME280;5727;42.600;23.028;2023-03-16T00:35:05;92802.00;;;4.32;100.00
11345;BME280;5727;42.600;23.028;2023-03-16T00:37:32;92816.66;;;4.28;100.00
11345;BME280;5727;42.600;23.028;2023-03-16T00:39:59;92815.59;;;4.20;100.00
11345;BME280;5727;42.600;23.028;2023-03-16T00:42:27;92832.19;;;4.28;100.00
11345;BME280;5727;42.600;23.028;2023-03-16T00:44:56;92826.06;;;4.32;100.00
11345;BME280;5727;42.600;23.028;2023-03-16T00:47:23;92827.13;;;4.40;100.00
11345;BME280;5727;42.600;23.028;2023-03-16T00:49:50;92833.22;;;4.44;100.00
11345;BME280;5727;42.600;23.028;2023-03-16T00:52:19;92830.94;;;4.51;100.00
11345;BME280;5727;42.600;23.028;2023-03-16T00:54:48;92842.41;;;4.41;100.00
11345;BME280;5727;42.600;23.028;2023-03-16T00:57:17;92837.41;;;4.11;100.00
11345;BME280;5727;42.600;23.028;2023-03-16T00:59:46;92838.44;;;4.10;100.00
11345;BME280;5727;42.600;23.028;2023-03-16T01:02:14;92831.00;;;4.17;100.00
11345;BME280;5727;42.600;23.028;2023-03-16T01:04:42;92837.06;;;4.21;100.00
11345;BME280;5727;42.600;23.028;2023-03-16T01:07:11;92840.44;;;4.13;100.00
11345;BME280;5727;42.600;23.028;2023-03-16T01:09:40;92834.97;;;3.97;100.00
11345;BME280;5727;42.600;23.028;2023-03-16T01:12:09;92833.13;;;3.98;100.00
11345;BME280;5727;42.600;23.028;2023-03-16T01:14:37;92845.03;;;3.82;100.00
11345;BME280;5727;42.600;23.028;2023-03-16T01:17:05;92844.25;;;3.81;100.00
11345;BME280;5727;42.600;23.028;2023-03-16T01:19:32;92843.31;;;3.60;100.00
11345;BME280;5727;42.600;23.028;2023-03-16T01:22:00;92845.41;;;3.41;100.00
11345;BME280;5727;42.600;23.028;2023-03-16T01:24:27;92845.72;;;3.39;100.00
11345;BME280;5727;42.600;23.028;2023-03-16T01:26:55;92846.34;;;3.45;100.00
11345;BME280;5727;42.600;23.028;2023-03-16T01:29:22;92850.75;;;3.36;100.00
11345;BME280;5727;42.600;23.028;2023-03-16T01:31:49;92842.34;;;3.39;100.00
11345;BME280;5727;42.600;23.028;2023-03-16T01:34:16;92846.19;;;3.41;100.00
11345;BME280;5727;42.600;23.028;2023-03-16T01:36:46;92833.22;;;3.50;100.00
11345;BME280;5727;42.600;23.028;2023-03-16T01:39:13;92840.84;;;3.46;100.00
11345;BME280;5727;42.600;23.028;2023-03-16T01:41:41;92837.97;;;3.56;100.00
11345;BME280;5727;42.600;23.028;2023-03-16T01:44:12;92850.59;;;3.41;100.00
11345;BME280;5727;42.600;23.028;2023-03-16T01:46:40;92857.63;;;3.49;100.00
11345;BME280;5727;42.600;23.028;2023-03-16T01:49:10;92852.88;;;3.42;100.00
11345;BME280;5727;42.600;23.028;2023-03-16T01:51:40;92852.75;;;3.47;100.00
11345;BME280;5727;42.600;23.028;2023-03-16T01:54:14;92857.53;;;3.23;100.00
11345;BME280;5727;42.600;23.028;2023-03-16T01:56:51;92858.50;;;3.36;100.00
11345;BME280;5727;42.600;23.028;2023-03-16T01:59:23;92863.78;;;3.22;100.00
11345;BME280;5727;42.600;23.028;2023-03-16T02:01:52;92870.81;;;2.91;100.00
11345;BME280;5727;42.600;23.028;2023-03-16T02:04:28;92869.00;;;2.61;100.00
11345;BME280;5727;42.600;23.028;2023-03-16T02:06:59;92872.88;;;2.50;100.00
11345;BME280;5727;42.600;23.028;2023-03-16T02:09:26;92875.00;;;2.48;100.00
11345;BME280;5727;42.600;23.028;2023-03-16T02:11:54;92876.91;;;2.34;100.00
11345;BME280;5727;42.600;23.028;2023-03-16T02:14:22;92883.38;;;2.23;100.00
11345;BME280;5727;42.600;23.028;2023-03-16T02:16:49;92880.53;;;2.33;100.00
11345;BME280;5727;42.600;23.028;2023-03-16T02:19:26;92896.38;;;2.18;100.00
11345;BME280;5727;42.600;23.028;2023-03-16T02:22:00;92885.88;;;2.14;100.00
11345;BME280;5727;42.600;23.028;2023-03-16T02:24:28;92887.13;;;2.17;100.00
11345;BME280;5727;42.600;23.028;2023-03-16T02:26:56;92896.81;;;2.11;100.00
11345;BME280;5727;42.600;23.028;2023-03-16T02:29:51;92904.66;;;2.06;100.00
11345;BME280;5727;42.600;23.028;2023-03-16T02:32:20;92895.25;;;2.10;100.00
11345;BME280;5727;42.600;23.028;2023-03-16T02:34:48;92901.06;;;2.16;100.00
11345;BME280;5727;42.600;23.028;2023-03-16T02:37:16;92907.09;;;2.25;100.00
11345;BME280;5727;42.600;23.028;2023-03-16T02:39:43;92910.59;;;2.29;100.00
11345;BME280;5727;42.600;23.028;2023-03-16T02:42:12;92906.84;;;2.13;100.00
11345;BME280;5727;42.600;23.028;2023-03-16T02:44:39;92914.84;;;2.25;100.00
11345;BME280;5727;42.600;23.028;2023-03-16T02:47:14;92916.19;;;2.22;100.00
11345;BME280;5727;42.600;23.028;2023-03-16T02:49:43;92915.06;;;2.15;100.00
11345;BME280;5727;42.600;23.028;2023-03-16T02:52:11;92918.94;;;2.04;100.00
11345;BME280;5727;42.600;23.028;2023-03-16T02:54:38;92917.03;;;1.96;100.00
11345;BME280;5727;42.600;23.028;2023-03-16T02:57:05;92921.53;;;1.90;100.00
11345;BME280;5727;42.600;23.028;2023-03-16T02:59:31;92927.09;;;1.83;100.00
11345;BME280;5727;42.600;23.028;2023-03-16T03:01:58;92928.13;;;1.82;100.00
11345;BME280;5727;42.600;23.028;2023-03-16T03:04:27;92922.69;;;1.98;100.00
11345;BME280;5727;42.600;23.028;2023-03-16T03:06:53;92931.84;;;2.04;100.00
11345;BME280;5727;42.600;23.028;2023-03-16T03:09:20;92934.88;;;2.06;100.00
11345;BME280;5727;42.600;23.028;2023-03-16T03:11:47;92934.78;;;2.11;100.00
11345;BME280;5727;42.600;23.028;2023-03-16T03:14:14;92932.56;;;2.18;100.00
11345;BME280;5727;42.600;23.028;2023-03-16T03:16:41;92940.22;;;2.23;100.00
11345;BME280;5727;42.600;23.028;2023-03-16T03:19:10;92942.25;;;2.12;100.00
11345;BME280;5727;42.600;23.028;2023-03-16T03:21:39;92944.06;;;2.12;100.00
11345;BME280;5727;42.600;23.028;2023-03-16T03:24:06;92935.03;;;2.23;100.00
11345;BME280;5727;42.600;23.028;2023-03-16T03:26:33;92939.22;;;2.32;100.00
11345;BME280;5727;42.600;23.028;2023-03-16T03:29:02;92940.03;;;2.41;100.00
11345;BME280;5727;42.600;23.028;2023-03-16T03:31:29;92944.88;;;2.34;100.00
11345;BME280;5727;42.600;23.028;2023-03-16T03:33:56;92946.56;;;2.39;100.00
11345;BME280;5727;42.600;23.028;2023-03-16T03:36:22;92947.78;;;2.41;100.00
11345;BME280;5727;42.600;23.028;2023-03-16T03:38:50;92950.09;;;2.43;100.00
11345;BME280;5727;42.600;23.028;2023-03-16T03:41:19;92961.38;;;2.47;100.00
11345;BME280;5727;42.600;23.028;2023-03-16T03:43:46;92961.19;;;2.43;100.00
11345;BME280;5727;42.600;23.028;2023-03-16T03:46:13;92957.19;;;2.37;100.00
11345;BME280;5727;42.600;23.028;2023-03-16T03:48:40;92953.59;;;2.25;100.00
11345;BME280;5727;42.600;23.028;2023-03-16T03:51:07;92955.34;;;2.16;100.00
11345;BME280;5727;42.600;23.028;2023-03-16T03:53:33;92953.03;;;2.14;100.00
11345;BME280;5727;42.600;23.028;2023-03-16T03:56:02;92969.34;;;2.01;100.00
11345;BME280;5727;42.600;23.028;2023-03-16T03:58:28;92957.09;;;2.07;100.00
11345;BME280;5727;42.600;23.028;2023-03-16T04:00:55;92962.59;;;2.14;100.00
11345;BME280;5727;42.600;23.028;2023-03-16T04:03:22;92971.69;;;2.25;100.00
11345;BME280;5727;42.600;23.028;2023-03-16T04:05:48;92976.59;;;2.13;100.00
11345;BME280;5727;42.600;23.028;2023-03-16T04:08:15;92970.31;;;1.92;100.00
11345;BME280;5727;42.600;23.028;2023-03-16T04:10:42;92978.53;;;2.07;100.00
11345;BME280;5727;42.600;23.028;2023-03-16T04:13:10;92986.53;;;2.19;100.00
11345;BME280;5727;42.600;23.028;2023-03-16T04:15:37;92983.06;;;2.24;100.00
11345;BME280;5727;42.600;23.028;2023-03-16T04:18:04;92986.16;;;2.12;100.00
11345;BME280;5727;42.600;23.028;2023-03-16T04:20:31;92987.13;;;2.16;100.00
11345;BME280;5727;42.600;23.028;2023-03-16T04:22:57;92994.34;;;2.28;100.00
11345;BME280;5727;42.600;23.028;2023-03-16T04:25:25;92986.88;;;2.40;100.00
11345;BME280;5727;42.600;23.028;2023-03-16T04:27:52;92998.50;;;2.51;100.00
11345;BME280;5727;42.600;23.028;2023-03-16T04:30:21;93000.69;;;2.57;100.00
11345;BME280;5727;42.600;23.028;2023-03-16T04:32:48;93006.03;;;2.61;100.00
11345;BME280;5727;42.600;23.028;2023-03-16T04:35:17;92999.09;;;2.70;100.00
11345;BME280;5727;42.600;23.028;2023-03-16T04:37:43;93008.47;;;2.79;100.00
11345;BME280;5727;42.600;23.028;2023-03-16T04:40:11;93006.03;;;2.83;100.00
11345;BME280;5727;42.600;23.028;2023-03-16T04:42:42;93005.09;;;2.79;100.00
11345;BME280;5727;42.600;23.028;2023-03-16T04:45:10;93013.31;;;2.81;100.00
11345;BME280;5727;42.600;23.028;2023-03-16T04:47:39;93017.47;;;2.82;100.00
11345;BME280;5727;42.600;23.028;2023-03-16T04:50:06;93016.22;;;2.79;100.00
11345;BME280;5727;42.600;23.028;2023-03-16T04:52:33;93018.31;;;2.77;100.00
11345;BME280;5727;42.600;23.028;2023-03-16T04:55:00;93023.19;;;2.57;100.00
11345;BME280;5727;42.600;23.028;2023-03-16T04:57:27;93032.13;;;2.51;100.00
11345;BME280;5727;42.600;23.028;2023-03-16T04:59:54;93034.09;;;2.54;100.00
11345;BME280;5727;42.600;23.028;2023-03-16T05:02:21;93034.31;;;2.57;100.00
11345;BME280;5727;42.600;23.028;2023-03-16T05:04:50;93042.16;;;2.52;100.00
11345;BME280;5727;42.600;23.028;2023-03-16T05:07:16;93042.50;;;2.37;100.00
11345;BME280;5727;42.600;23.028;2023-03-16T05:09:43;93048.25;;;2.34;100.00
11345;BME280;5727;42.600;23.028;2023-03-16T05:12:10;93045.44;;;2.31;100.00
11345;BME280;5727;42.600;23.028;2023-03-16T05:14:37;93047.94;;;2.36;100.00
11345;BME280;5727;42.600;23.028;2023-03-16T05:17:04;93050.59;;;2.44;100.00
11345;BME280;5727;42.600;23.028;2023-03-16T05:19:31;93057.84;;;2.56;100.00
11345;BME280;5727;42.600;23.028;2023-03-16T05:21:59;93059.56;;;2.60;100.00
11345;BME280;5727;42.600;23.028;2023-03-16T05:24:26;93063.59;;;2.66;100.00
11345;BME280;5727;42.600;23.028;2023-03-16T05:26:52;93064.13;;;2.77;100.00
11345;BME280;5727;42.600;23.028;2023-03-16T05:29:19;93065.88;;;2.90;100.00
11345;BME280;5727;42.600;23.028;2023-03-16T05:31:46;93061.56;;;2.99;100.00
11345;BME280;5727;42.600;23.028;2023-03-16T05:34:13;93070.38;;;2.98;100.00
11345;BME280;5727;42.600;23.028;2023-03-16T05:36:40;93076.00;;;3.00;100.00
11345;BME280;5727;42.600;23.028;2023-03-16T05:39:10;93069.78;;;3.01;100.00
11345;BME280;5727;42.600;23.028;2023-03-16T05:41:37;93068.03;;;3.10;100.00
11345;BME280;5727;42.600;23.028;2023-03-16T05:44:04;93069.78;;;3.01;100.00
11345;BME280;5727;42.600;23.028;2023-03-16T05:46:32;93076.00;;;3.00;100.00
11345;BME280;5727;42.600;23.028;2023-03-16T05:48:59;93075.91;;;3.05;100.00
11345;BME280;5727;42.600;23.028;2023-03-16T05:51:25;93082.38;;;3.16;100.00
11345;BME280;5727;42.600;23.028;2023-03-16T05:53:52;93088.56;;;3.07;100.00
11345;BME280;5727;42.600;23.028;2023-03-16T05:58:50;93087.03;;;2.70;100.00
11345;BME280;5727;42.600;23.028;2023-03-16T06:01:17;93084.38;;;2.48;100.00
11345;BME280;5727;42.600;23.028;2023-03-16T06:03:44;93084.66;;;2.60;100.00
11345;BME280;5727;42.600;23.028;2023-03-16T06:06:11;93084.81;;;2.77;100.00
11345;BME280;5727;42.600;23.028;2023-03-16T06:08:38;93093.94;;;2.97;100.00
11345;BME280;5727;42.600;23.028;2023-03-16T06:11:04;93088.25;;;3.08;100.00
11345;BME280;5727;42.600;23.028;2023-03-16T06:13:33;93109.19;;;3.20;100.00
11345;BME280;5727;42.600;23.028;2023-03-16T06:16:00;93096.31;;;3.29;100.00
11345;BME280;5727;42.600;23.028;2023-03-16T06:18:27;93106.72;;;3.37;100.00
11345;BME280;5727;42.600;23.028;2023-03-16T06:20:53;93114.84;;;3.44;100.00
11345;BME280;5727;42.600;23.028;2023-03-16T06:23:20;93111.38;;;3.49;100.00
11345;BME280;5727;42.600;23.028;2023-03-16T06:25:47;93115.00;;;3.48;100.00
11345;BME280;5727;42.600;23.028;2023-03-16T06:28:14;93119.66;;;3.59;100.00
11345;BME280;5727;42.600;23.028;2023-03-16T06:30:42;93128.97;;;3.60;100.00
11345;BME280;5727;42.600;23.028;2023-03-16T06:33:09;93128.97;;;3.60;100.00
11345;BME280;5727;42.600;23.028;2023-03-16T06:35:36;93129.72;;;3.39;100.00
11345;BME280;5727;42.600;23.028;2023-03-16T06:38:03;93131.97;;;3.32;100.00
11345;BME280;5727;42.600;23.028;2023-03-16T06:40:29;93127.13;;;3.39;100.00
11345;BME280;5727;42.600;23.028;2023-03-16T06:42:56;93134.69;;;2.91;100.00
11345;BME280;5727;42.600;23.028;2023-03-16T06:45:23;93134.59;;;2.83;100.00
11345;BME280;5727;42.600;23.028;2023-03-16T06:47:51;93138.59;;;3.02;100.00
11345;BME280;5727;42.600;23.028;2023-03-16T06:50:18;93151.50;;;2.80;100.00
11345;BME280;5727;42.600;23.028;2023-03-16T06:52:45;93155.38;;;2.91;100.00
11345;BME280;5727;42.600;23.028;2023-03-16T06:55:12;93157.94;;;3.05;100.00
11345;BME280;5727;42.600;23.028;2023-03-16T06:57:39;93164.28;;;2.99;100.00
11345;BME280;5727;42.600;23.028;2023-03-16T07:00:07;93168.59;;;3.03;100.00
11345;BME280;5727;42.600;23.028;2023-03-16T07:02:34;93169.06;;;3.05;100.00
11345;BME280;5727;42.600;23.028;2023-03-16T07:05:06;93182.69;;;2.97;100.00
11345;BME280;5727;42.600;23.028;2023-03-16T07:07:33;93179.03;;;2.98;100.00
11345;BME280;5727;42.600;23.028;2023-03-16T07:09:59;93184.44;;;2.88;100.00
11345;BME280;5727;42.600;23.028;2023-03-16T07:12:26;93187.09;;;2.97;100.00
11345;BME280;5727;42.600;23.028;2023-03-16T07:14:53;93192.09;;;2.79;100.00
11345;BME280;5727;42.600;23.028;2023-03-16T07:17:20;93186.63;;;2.81;100.00
11345;BME280;5727;42.600;23.028;2023-03-16T07:19:47;93193.03;;;2.97;100.00
11345;BME280;5727;42.600;23.028;2023-03-16T07:22:15;93190.97;;;3.21;100.00
11345;BME280;5727;42.600;23.028;2023-03-16T07:24:41;93197.88;;;3.48;100.00
11345;BME280;5727;42.600;23.028;2023-03-16T07:27:09;93201.31;;;3.57;100.00
11345;BME280;5727;42.600;23.028;2023-03-16T07:29:36;93200.72;;;3.60;100.00
11345;BME280;5727;42.600;23.028;2023-03-16T07:32:03;93202.59;;;3.68;100.00
11345;BME280;5727;42.600;23.028;2023-03-16T07:34:30;93214.94;;;3.71;100.00
11345;BME280;5727;42.600;23.028;2023-03-16T07:36:57;93206.53;;;3.43;100.00
11345;BME280;5727;42.600;23.028;2023-03-16T07:39:25;93206.88;;;3.50;100.00
11345;BME280;5727;42.600;23.028;2023-03-16T07:41:52;93215.44;;;3.51;100.00
11345;BME280;5727;42.600;23.028;2023-03-16T07:44:19;93206.84;;;3.64;100.00
11345;BME280;5727;42.600;23.028;2023-03-16T07:46:46;93213.84;;;3.86;100.00
11345;BME280;5727;42.600;23.028;2023-03-16T07:49:12;93214.53;;;4.00;100.00
11345;BME280;5727;42.600;23.028;2023-03-16T07:51:40;93211.78;;;4.27;100.00
11345;BME280;5727;42.600;23.028;2023-03-16T07:54:07;93216.78;;;4.45;100.00
11345;BME280;5727;42.600;23.028;2023-03-16T07:56:35;93228.25;;;4.53;100.00
11345;BME280;5727;42.600;23.028;2023-03-16T07:59:02;93219.47;;;4.40;100.00
11345;BME280;5727;42.600;23.028;2023-03-16T08:01:29;93225.75;;;4.48;100.00
11345;BME280;5727;42.600;23.028;2023-03-16T08:03:56;93224.31;;;4.64;100.00
11345;BME280;5727;42.600;23.028;2023-03-16T08:06:23;93231.31;;;4.63;100.00
11345;BME280;5727;42.600;23.028;2023-03-16T08:08:50;93230.44;;;4.68;100.00
11345;BME280;5727;42.600;23.028;2023-03-16T08:11:17;93229.97;;;4.75;100.00
11345;BME280;5727;42.600;23.028;2023-03-16T08:13:50;93234.69;;;4.64;100.00
11345;BME280;5727;42.600;23.028;2023-03-16T08:16:19;93246.22;;;3.97;100.00
11345;BME280;5727;42.600;23.028;2023-03-16T08:18:46;93235.50;;;3.67;100.00
11345;BME280;5727;42.600;23.028;2023-03-16T08:21:13;93231.25;;;3.49;100.00
11345;BME280;5727;42.600;23.028;2023-03-16T08:23:41;93241.28;;;3.15;100.00
11345;BME280;5727;42.600;23.028;2023-03-16T08:26:13;93238.78;;;3.37;100.00
11345;BME280;5727;42.600;23.028;2023-03-16T08:28:41;93242.41;;;3.72;100.00
11345;BME280;5727;42.600;23.028;2023-03-16T08:31:13;93243.50;;;4.02;100.00
11345;BME280;5727;42.600;23.028;2023-03-16T08:33:41;93251.69;;;4.17;100.00
11345;BME280;5727;42.600;23.028;2023-03-16T08:36:09;93248.47;;;4.42;100.00
11345;BME280;5727;42.600;23.028;2023-03-16T08:38:38;93247.53;;;4.69;100.00
11345;BME280;5727;42.600;23.028;2023-03-16T08:41:05;93254.91;;;4.84;100.00
11345;BME280;5727;42.600;23.028;2023-03-16T08:43:32;93261.19;;;4.52;100.00
11345;BME280;5727;42.600;23.028;2023-03-16T08:45:59;93259.34;;;4.22;100.00
11345;BME280;5727;42.600;23.028;2023-03-16T08:48:29;93266.44;;;4.08;100.00
11345;BME280;5727;42.600;23.028;2023-03-16T08:51:00;93261.59;;;3.93;100.00
11345;BME280;5727;42.600;23.028;2023-03-16T08:53:27;93272.75;;;3.94;100.00
11345;BME280;5727;42.600;23.028;2023-03-16T08:56:00;93262.00;;;3.64;100.00
11345;BME280;5727;42.600;23.028;2023-03-16T08:58:29;93264.63;;;3.51;100.00
11345;BME280;5727;42.600;23.028;2023-03-16T09:00:57;93273.59;;;3.18;100.00
11345;BME280;5727;42.600;23.028;2023-03-16T09:03:25;93270.34;;;3.26;100.00
11345;BME280;5727;42.600;23.028;2023-03-16T09:05:59;93272.94;;;3.12;100.00
11345;BME280;5727;42.600;23.028;2023-03-16T09:08:27;93269.88;;;3.10;100.00
11345;BME280;5727;42.600;23.028;2023-03-16T09:10:58;93278.72;;;3.09;100.00
11345;BME280;5727;42.600;23.028;2023-03-16T09:13:25;93285.50;;;3.19;100.00
11345;BME280;5727;42.600;23.028;2023-03-16T09:15:53;93281.56;;;3.21;100.00
11345;BME280;5727;42.600;23.028;2023-03-16T09:18:19;93280.19;;;3.37;100.00
11345;BME280;5727;42.600;23.028;2023-03-16T09:20:51;93287.31;;;3.18;100.00
11345;BME280;5727;42.600;23.028;2023-03-16T09:23:19;93279.75;;;3.22;100.00
11345;BME280;5727;42.600;23.028;2023-03-16T09:25:46;93284.25;;;3.30;100.00
11345;BME280;5727;42.600;23.028;2023-03-16T09:28:12;93288.03;;;3.46;100.00
11345;BME280;5727;42.600;23.028;2023-03-16T09:30:40;93284.94;;;3.57;100.00
11345;BME280;5727;42.600;23.028;2023-03-16T09:33:06;93300.56;;;3.66;100.00
11345;BME280;5727;42.600;23.028;2023-03-16T09:35:33;93291.19;;;3.56;100.00
11345;BME280;5727;42.600;23.028;2023-03-16T09:38:01;93292.66;;;3.35;100.00
11345;BME280;5727;42.600;23.028;2023-03-16T09:40:30;93292.19;;;3.33;100.00
11345;BME280;5727;42.600;23.028;2023-03-16T09:43:09;93295.16;;;3.27;100.00
11345;BME280;5727;42.600;23.028;2023-03-16T09:45:42;93290.69;;;3.19;100.00
11345;BME280;5727;42.600;23.028;2023-03-16T09:48:14;93303.81;;;3.22;100.00
11345;BME280;5727;42.600;23.028;2023-03-16T09:50:43;93290.00;;;3.13;100.00
11345;BME280;5727;42.600;23.028;2023-03-16T09:53:17;93291.72;;;3.31;100.00
11345;BME280;5727;42.600;23.028;2023-03-16T09:55:52;93289.50;;;3.74;100.00
11345;BME280;5727;42.600;23.028;2023-03-16T09:58:20;93295.41;;;4.10;100.00
11345;BME280;5727;42.600;23.028;2023-03-16T10:00:53;93299.53;;;4.11;100.00
11345;BME280;5727;42.600;23.028;2023-03-16T10:03:32;93303.22;;;4.19;100.00
11345;BME280;5727;42.600;23.028;2023-03-16T10:06:03;93306.25;;;4.34;100.00
11345;BME280;5727;42.600;23.028;2023-03-16T10:08:36;93312.72;;;4.45;100.00
11345;BME280;5727;42.600;23.028;2023-03-16T10:11:19;93311.59;;;4.60;100.00
11345;BME280;5727;42.600;23.028;2023-03-16T10:13:53;93320.84;;;4.52;100.00
11345;BME280;5727;42.600;23.028;2023-03-16T10:16:37;93324.44;;;4.21;100.00
11345;BME280;5727;42.600;23.028;2023-03-16T10:19:11;93306.53;;;4.33;100.00
11345;BME280;5727;42.600;23.028;2023-03-16T10:21:40;93320.06;;;4.52;100.00
11345;BME280;5727;42.600;23.028;2023-03-16T10:24:16;93311.56;;;4.29;100.00
11345;BME280;5727;42.600;23.028;2023-03-16T10:26:53;93309.03;;;4.38;100.00
11345;BME280;5727;42.600;23.028;2023-03-16T10:29:24;93309.28;;;4.58;100.00
11345;BME280;5727;42.600;23.028;2023-03-16T10:31:58;93316.06;;;4.68;100.00
11345;BME280;5727;42.600;23.028;2023-03-16T10:34:27;93334.88;;;4.51;100.00
11345;BME280;5727;42.600;23.028;2023-03-16T10:36:55;93320.88;;;4.08;100.00
11345;BME280;5727;42.600;23.028;2023-03-16T10:39:22;93317.03;;;4.06;100.00
11345;BME280;5727;42.600;23.028;2023-03-16T10:41:54;93316.41;;;4.22;100.00
11345;BME280;5727;42.600;23.028;2023-03-16T10:44:23;93312.16;;;4.26;100.00
11345;BME280;5727;42.600;23.028;2023-03-16T10:47:00;93318.25;;;4.30;100.00
11345;BME280;5727;42.600;23.028;2023-03-16T10:49:33;93310.66;;;4.56;100.00
11345;BME280;5727;42.600;23.028;2023-03-16T10:52:06;93310.06;;;4.90;100.00
11345;BME280;5727;42.600;23.028;2023-03-16T10:54:36;93312.47;;;4.86;100.00
11345;BME280;5727;42.600;23.028;2023-03-16T10:57:13;93325.34;;;4.69;100.00
11345;BME280;5727;42.600;23.028;2023-03-16T10:59:47;93310.72;;;4.73;100.00
11345;BME280;5727;42.600;23.028;2023-03-16T11:02:17;93318.44;;;4.56;100.00
11345;BME280;5727;42.600;23.028;2023-03-16T11:04:45;93318.41;;;4.47;100.00
11345;BME280;5727;42.600;23.028;2023-03-16T11:07:15;93304.47;;;4.43;100.00
11345;BME280;5727;42.600;23.028;2023-03-16T11:09:43;93317.00;;;4.50;100.00
11345;BME280;5727;42.600;23.028;2023-03-16T11:12:13;93323.03;;;4.37;100.00
11345;BME280;5727;42.600;23.028;2023-03-16T11:14:44;93320.78;;;4.44;100.00
11345;BME280;5727;42.600;23.028;2023-03-16T11:17:15;93324.22;;;4.53;100.00
11345;BME280;5727;42.600;23.028;2023-03-16T11:19:49;93321.63;;;4.53;100.00
11345;BME280;5727;42.600;23.028;2023-03-16T11:22:20;93319.66;;;4.58;100.00
11345;BME280;5727;42.600;23.028;2023-03-16T11:24:51;93329.34;;;4.67;100.00
11345;BME280;5727;42.600;23.028;2023-03-16T11:27:23;93318.91;;;4.58;100.00
11345;BME280;5727;42.600;23.028;2023-03-16T11:30:04;93327.63;;;4.62;100.00
11345;BME280;5727;42.600;23.028;2023-03-16T11:32:36;93332.16;;;4.56;100.00
11345;BME280;5727;42.600;23.028;2023-03-16T11:35:12;93327.56;;;4.53;100.00
11345;BME280;5727;42.600;23.028;2023-03-16T11:38:01;93322.00;;;4.38;100.00
11345;BME280;5727;42.600;23.028;2023-03-16T11:40:47;93323.03;;;4.37;100.00
11345;BME280;5727;42.600;23.028;2023-03-16T11:43:38;93319.63;;;4.28;100.00
11345;BME280;5727;42.600;23.028;2023-03-16T11:46:12;93310.66;;;4.12;100.00
11345;BME280;5727;42.600;23.028;2023-03-16T11:48:48;93310.19;;;4.10;100.00
11345;BME280;5727;42.600;23.028;2023-03-16T11:51:30;93312.91;;;4.27;100.00
11345;BME280;5727;42.600;23.028;2023-03-16T11:54:12;93309.56;;;4.04;100.00
11345;BME280;5727;42.600;23.028;2023-03-16T11:56:44;93311.50;;;4.21;100.00
11345;BME280;5727;42.600;23.028;2023-03-16T11:59:20;93316.75;;;4.29;100.00
11345;BME280;5727;42.600;23.028;2023-03-16T12:02:08;93322.63;;;3.99;100.00
11345;BME280;5727;42.600;23.028;2023-03-16T12:04:50;93322.59;;;3.77;100.00
11345;BME280;5727;42.600;23.028;2023-03-16T12:07:35;93339.06;;;3.59;100.00
11345;BME280;5727;42.600;23.028;2023-03-16T12:10:15;93330.16;;;3.51;100.00
11345;BME280;5727;42.600;23.028;2023-03-16T12:12:55;93321.91;;;3.49;100.00
11345;BME280;5727;42.600;23.028;2023-03-16T12:15:31;93336.94;;;3.61;100.00
11345;BME280;5727;42.600;23.028;2023-03-16T12:18:04;93338.56;;;3.70;100.00
11345;BME280;5727;42.600;23.028;2023-03-16T12:20:39;93330.97;;;3.74;100.00
11345;BME280;5727;42.600;23.028;2023-03-16T12:23:11;93334.94;;;3.94;100.00
11345;BME280;5727;42.600;23.028;2023-03-16T12:25:41;93339.19;;;3.90;100.00
11345;BME280;5727;42.600;23.028;2023-03-16T12:28:20;93330.31;;;3.91;100.00
11345;BME280;5727;42.600;23.028;2023-03-16T12:30:54;93341.78;;;4.12;100.00
11345;BME280;5727;42.600;23.028;2023-03-16T12:33:31;93354.69;;;4.03;100.00
11345;BME280;5727;42.600;23.028;2023-03-16T12:36:13;93348.16;;;3.56;100.00
11345;BME280;5727;42.600;23.028;2023-03-16T12:38:48;93352.03;;;3.45;100.00
11345;BME280;5727;42.600;23.028;2023-03-16T12:41:27;93335.59;;;3.36;100.00
11345;BME280;5727;42.600;23.028;2023-03-16T12:44:11;93354.63;;;3.32;100.00
11345;BME280;5727;42.600;23.028;2023-03-16T12:46:44;93351.06;;;3.41;100.00
11345;BME280;5727;42.600;23.028;2023-03-16T12:49:15;93349.50;;;3.54;100.00
11345;BME280;5727;42.600;23.028;2023-03-16T12:51:44;93354.31;;;3.60;100.00
11345;BME280;5727;42.600;23.028;2023-03-16T12:54:20;93350.00;;;3.42;100.00
11345;BME280;5727;42.600;23.028;2023-03-16T12:56:49;93365.34;;;3.39;100.00
11345;BME280;5727;42.600;23.028;2023-03-16T12:59:19;93363.53;;;3.26;100.00
11345;BME280;5727;42.600;23.028;2023-03-16T13:01:48;93359.31;;;3.16;100.00
11345;BME280;5727;42.600;23.028;2023-03-16T13:04:18;93356.72;;;3.16;100.00
11345;BME280;5727;42.600;23.028;2023-03-16T13:06:49;93360.94;;;3.12;100.00
11345;BME280;5727;42.600;23.028;2023-03-16T13:09:21;93378.69;;;3.05;100.00
11345;BME280;5727;42.600;23.028;2023-03-16T13:11:49;93362.56;;;3.08;100.00
11345;BME280;5727;42.600;23.028;2023-03-16T13:14:35;93377.06;;;3.09;100.00